createdAt,value
2019-04-06T00:01:32.009Z,11.60
2019-04-06T00:04:01.098Z,11.60
2019-04-06T00:06:29.877Z,11.60
2019-04-06T00:08:58.665Z,11.60
2019-04-06T00:11:27.413Z,11.50
2019-04-06T00:13:56.280Z,11.50
2019-04-06T00:16:25.122Z,11.60
2019-04-06T00:18:54.128Z,11.50
2019-04-06T00:21:22.882Z,11.40
2019-04-06T00:23:51.661Z,11.60
2019-04-06T00:26:20.520Z,11.70
2019-04-06T00:28:49.265Z,11.70
2019-04-06T00:31:46.129Z,11.70
2019-04-06T00:34:14.953Z,11.60
2019-04-06T00:36:43.714Z,11.40
2019-04-06T00:39:12.501Z,11.30
2019-04-06T00:41:41.261Z,11.40
2019-04-06T00:44:10.004Z,11.30
2019-04-06T00:46:39.066Z,11.30
2019-04-06T00:49:07.882Z,11.30
2019-04-06T00:51:36.657Z,11.20
2019-04-06T00:54:05.653Z,11.10
2019-04-06T00:56:34.516Z,11.00
2019-04-06T00:59:03.326Z,11.10
2019-04-06T01:01:32.177Z,11.20
2019-04-06T01:04:00.933Z,11.40
2019-04-06T01:06:29.824Z,11.20
2019-04-06T01:08:59.081Z,11.20
2019-04-06T01:11:28.008Z,11.40
2019-04-06T01:13:56.753Z,11.20
2019-04-06T01:16:25.599Z,11.00
2019-04-06T01:18:54.366Z,10.90
2019-04-06T01:21:23.181Z,10.80
2019-04-06T01:23:51.958Z,10.80
2019-04-06T01:26:20.780Z,10.80
2019-04-06T01:28:50.198Z,10.70
2019-04-06T01:31:18.937Z,10.70
2019-04-06T01:33:48.034Z,10.70
2019-04-06T01:36:16.869Z,10.60
2019-04-06T01:38:45.694Z,10.60
2019-04-06T01:41:14.444Z,10.50
2019-04-06T01:43:43.562Z,10.50
2019-04-06T01:46:12.637Z,10.50
2019-04-06T01:48:41.391Z,10.50
2019-04-06T01:51:10.554Z,10.40
2019-04-06T01:53:39.297Z,10.50
2019-04-06T01:56:17.900Z,10.50
2019-04-06T01:58:39.126Z,10.50
2019-04-06T02:01:15.800Z,10.50
2019-04-06T02:03:44.566Z,10.40
2019-04-06T02:06:13.365Z,10.40
2019-04-06T02:08:42.142Z,10.40
2019-04-06T02:11:10.949Z,10.20
2019-04-06T02:13:39.745Z,10.30
2019-04-06T02:16:08.625Z,10.40
2019-04-06T02:18:37.393Z,10.30
2019-04-06T02:21:06.213Z,10.30
2019-04-06T02:23:34.960Z,10.30
2019-04-06T02:26:03.780Z,10.50
2019-04-06T02:28:32.627Z,10.50
2019-04-06T02:31:11.298Z,10.60
2019-04-06T02:34:05.267Z,10.60
2019-04-06T02:36:49.998Z,10.40
2019-04-06T02:39:36.999Z,10.30
2019-04-06T02:42:18.685Z,10.30
2019-04-06T02:44:47.521Z,10.40
2019-04-06T02:47:16.568Z,10.30
2019-04-06T02:49:45.363Z,10.30
2019-04-06T02:52:14.126Z,10.30
2019-04-06T02:54:42.936Z,10.20
2019-04-06T02:57:11.686Z,10.10
2019-04-06T02:59:40.550Z,10.20
2019-04-06T03:02:09.388Z,10.40
2019-04-06T03:04:38.333Z,10.40
2019-04-06T03:07:07.081Z,10.50
2019-04-06T03:09:35.903Z,10.40
2019-04-06T03:12:04.922Z,10.20
2019-04-06T03:14:33.880Z,10.00
2019-04-06T03:17:02.765Z,9.90
2019-04-06T03:19:31.644Z,9.90
2019-04-06T03:22:00.486Z,9.90
2019-04-06T03:24:29.403Z,9.90
2019-04-06T03:27:02.052Z,9.90
2019-04-06T03:29:28.714Z,9.80
2019-04-06T03:31:57.471Z,9.90
2019-04-06T03:34:26.290Z,10.00
2019-04-06T03:36:55.106Z,9.90
2019-04-06T03:39:23.874Z,9.90
2019-04-06T03:41:52.673Z,9.80
2019-04-06T03:44:21.414Z,9.70
2019-04-06T03:46:50.198Z,9.80
2019-04-06T03:49:19.317Z,9.80
2019-04-06T03:51:48.196Z,9.80
2019-04-06T03:54:17.063Z,9.70
2019-04-06T03:56:45.802Z,9.70
2019-04-06T03:59:14.573Z,9.70
2019-04-06T04:01:43.391Z,9.80
2019-04-06T04:04:12.163Z,9.90
2019-04-06T04:06:40.909Z,10.00
2019-04-06T04:09:09.930Z,9.90
2019-04-06T04:11:38.671Z,9.90
2019-04-06T04:14:07.592Z,9.90
2019-04-06T04:16:36.402Z,9.90
2019-04-06T04:19:05.393Z,9.70
2019-04-06T04:21:34.257Z,9.60
2019-04-06T04:24:03.126Z,9.60
2019-04-06T04:26:31.950Z,9.50
2019-04-06T04:29:00.696Z,9.50
2019-04-06T04:31:29.795Z,9.60
2019-04-06T04:33:58.628Z,9.50
2019-04-06T04:36:27.455Z,9.60
2019-04-06T04:38:56.274Z,9.60
2019-04-06T04:41:25.431Z,9.50
2019-04-06T04:43:54.225Z,9.40
2019-04-06T04:46:23.053Z,9.40
2019-04-06T04:48:51.826Z,9.40
2019-04-06T04:51:20.929Z,9.30
2019-04-06T04:53:49.781Z,9.40
2019-04-06T04:56:18.832Z,9.40
2019-04-06T04:58:47.725Z,9.30
2019-04-06T05:01:16.856Z,9.30
2019-04-06T05:03:45.780Z,9.30
2019-04-06T05:06:14.705Z,9.40
2019-04-06T05:08:43.754Z,9.40
2019-04-06T05:11:12.489Z,9.50
2019-04-06T05:13:41.275Z,9.40
2019-04-06T05:16:11.586Z,9.40
2019-04-06T05:18:41.948Z,9.40
2019-04-06T05:21:11.961Z,9.40
2019-04-06T05:23:41.086Z,9.50
2019-04-06T05:26:10.141Z,9.50
2019-04-06T05:28:38.950Z,9.50
2019-04-06T05:31:08.036Z,9.60
2019-04-06T05:33:37.281Z,9.60
2019-04-06T05:36:06.435Z,9.60
2019-04-06T05:38:35.477Z,9.80
2019-04-06T05:41:04.608Z,9.70
2019-04-06T05:43:33.605Z,9.80
2019-04-06T05:46:02.446Z,9.80
2019-04-06T05:48:31.354Z,9.80
2019-04-06T05:51:03.910Z,9.80
2019-04-06T05:53:32.742Z,9.90
2019-04-06T05:56:04.374Z,10.00
2019-04-06T05:58:33.134Z,10.00
2019-04-06T06:01:03.982Z,9.90
2019-04-06T06:03:32.610Z,10.00
2019-04-06T06:06:01.536Z,10.20
2019-04-06T06:08:30.580Z,10.20
2019-04-06T06:10:59.656Z,10.30
2019-04-06T06:13:29.937Z,10.40
2019-04-06T06:15:58.768Z,10.50
2019-04-06T06:18:27.786Z,10.50
2019-04-06T06:20:56.734Z,10.50
2019-04-06T06:23:25.649Z,10.50
2019-04-06T06:25:54.396Z,10.60
2019-04-06T06:28:23.443Z,10.80
2019-04-06T06:30:52.478Z,10.80
2019-04-06T06:33:21.349Z,10.90
2019-04-06T06:35:50.121Z,11.10
2019-04-06T06:38:19.312Z,11.20
2019-04-06T06:40:48.445Z,11.50
2019-04-06T06:43:17.232Z,11.60
2019-04-06T06:45:45.985Z,11.60
2019-04-06T06:48:14.717Z,11.60
2019-04-06T06:50:43.809Z,11.90
2019-04-06T06:53:12.557Z,12.00
2019-04-06T06:55:41.318Z,12.20
2019-04-06T06:58:10.450Z,12.10
2019-04-06T07:00:39.419Z,12.20
2019-04-06T07:03:08.273Z,12.40
2019-04-06T07:05:37.163Z,12.70
2019-04-06T07:08:06.059Z,12.90
2019-04-06T07:10:35.225Z,12.90
2019-04-06T07:13:04.055Z,12.90
2019-04-06T07:15:33.104Z,13.00
2019-04-06T07:18:02.016Z,12.90
2019-04-06T07:20:31.216Z,13.00
2019-04-06T07:23:00.078Z,13.10
2019-04-06T07:25:29.020Z,13.10
2019-04-06T07:27:58.054Z,13.40
2019-04-06T07:30:27.908Z,13.70
2019-04-06T07:32:56.741Z,13.60
2019-04-06T07:35:25.581Z,13.70
2019-04-06T07:37:54.441Z,13.80
2019-04-06T07:40:23.185Z,14.00
2019-04-06T07:42:52.082Z,14.00
2019-04-06T07:45:20.893Z,14.20
2019-04-06T07:47:49.721Z,14.20
2019-04-06T07:50:18.902Z,14.30
2019-04-06T07:52:47.910Z,14.40
2019-04-06T07:55:16.717Z,14.40
2019-04-06T07:57:45.453Z,14.40
2019-04-06T08:00:14.481Z,14.50
2019-04-06T08:02:43.303Z,14.60
2019-04-06T08:05:12.478Z,14.70
2019-04-06T08:07:41.429Z,14.80
2019-04-06T08:10:10.269Z,14.80
2019-04-06T08:12:39.044Z,14.90
2019-04-06T08:15:14.377Z,15.00
2019-04-06T08:17:43.521Z,15.00
2019-04-06T08:20:12.429Z,15.10
2019-04-06T08:22:41.359Z,15.10
2019-04-06T08:25:10.518Z,15.20
2019-04-06T08:27:39.307Z,15.30
2019-04-06T08:30:09.058Z,15.20
2019-04-06T08:32:37.941Z,15.30
2019-04-06T08:35:07.418Z,15.40
2019-04-06T08:37:36.498Z,15.40
2019-04-06T08:40:06.554Z,15.40
2019-04-06T08:42:35.399Z,15.50
2019-04-06T08:45:04.569Z,15.70
2019-04-06T08:47:33.780Z,15.80
2019-04-06T08:50:02.686Z,15.80
2019-04-06T08:52:31.557Z,15.90
2019-04-06T08:55:00.552Z,15.90
2019-04-06T08:57:29.339Z,16.10
2019-04-06T08:59:58.179Z,16.20
2019-04-06T09:02:28.499Z,16.30
2019-04-06T09:04:57.621Z,16.30
2019-04-06T09:07:26.382Z,16.40
2019-04-06T09:09:55.145Z,16.40
2019-04-06T09:12:23.935Z,16.60
2019-04-06T09:14:52.703Z,16.60
2019-04-06T09:17:21.710Z,16.70
2019-04-06T09:19:50.466Z,16.80
2019-04-06T09:22:19.572Z,16.90
2019-04-06T09:24:48.512Z,17.00
2019-04-06T09:27:17.364Z,17.00
2019-04-06T09:29:46.136Z,17.10
2019-04-06T09:32:15.285Z,17.30
2019-04-06T09:34:44.279Z,17.40
2019-04-06T09:37:13.471Z,17.40
2019-04-06T09:39:42.214Z,17.50
2019-04-06T09:42:11.158Z,17.60
2019-04-06T09:44:46.413Z,17.70
2019-04-06T09:47:28.403Z,17.70
2019-04-06T09:50:14.830Z,17.80
2019-04-06T09:53:04.550Z,17.80
2019-04-06T09:55:43.128Z,17.80
2019-04-06T09:58:51.105Z,17.90
2019-04-06T10:01:45.233Z,17.80
2019-04-06T10:04:33.280Z,17.90
2019-04-06T10:07:18.425Z,18.00
2019-04-06T10:09:58.388Z,18.10
2019-04-06T10:12:40.760Z,18.20
2019-04-06T10:15:32.071Z,18.20
2019-04-06T10:18:19.646Z,18.40
2019-04-06T10:21:15.288Z,18.50
2019-04-06T10:23:58.735Z,18.60
2019-04-06T10:26:38.060Z,18.70
2019-04-06T10:29:48.268Z,18.80
2019-04-06T10:32:27.364Z,18.80
2019-04-06T10:35:15.591Z,18.80
2019-04-06T10:38:19.222Z,18.90
2019-04-06T10:40:59.509Z,19.00
2019-04-06T10:43:47.401Z,19.00
2019-04-06T10:46:44.682Z,18.90
2019-04-06T10:49:27.558Z,19.10
2019-04-06T10:52:21.709Z,19.20
2019-04-06T10:55:16.100Z,19.30
2019-04-06T10:57:52.150Z,19.40
2019-04-06T11:00:28.944Z,19.50
2019-04-06T11:03:20.092Z,19.70
2019-04-06T11:06:11.166Z,19.90
2019-04-06T11:08:48.917Z,20.00
2019-04-06T11:11:39.816Z,19.80
2019-04-06T11:14:33.943Z,20.00
2019-04-06T11:17:12.007Z,20.20
2019-04-06T11:19:58.881Z,20.30
2019-04-06T11:22:49.826Z,20.30
2019-04-06T11:25:27.779Z,20.10
2019-04-06T11:28:11.588Z,20.00
2019-04-06T11:30:54.063Z,20.00
2019-04-06T11:33:40.473Z,19.90
2019-04-06T11:36:23.405Z,20.00
2019-04-06T11:39:10.284Z,20.20
2019-04-06T11:42:04.426Z,20.30
2019-04-06T11:44:39.546Z,20.40
2019-04-06T11:47:26.199Z,20.50
2019-04-06T11:50:14.983Z,20.50
2019-04-06T11:52:51.104Z,20.50
2019-04-06T11:55:57.549Z,20.50
2019-04-06T11:58:42.260Z,20.50
2019-04-06T12:01:22.978Z,20.60
2019-04-06T12:04:03.814Z,20.60
2019-04-06T12:06:48.038Z,20.60
2019-04-06T12:09:28.217Z,20.60
2019-04-06T12:12:07.378Z,20.60
2019-04-06T12:14:47.861Z,20.60
2019-04-06T12:17:34.398Z,20.70
2019-04-06T12:20:20.873Z,20.70
2019-04-06T12:23:27.368Z,20.80
2019-04-06T12:26:04.059Z,20.90
2019-04-06T12:28:50.857Z,20.90
2019-04-06T12:31:38.704Z,20.90
2019-04-06T12:34:34.635Z,20.70
2019-04-06T12:37:25.602Z,20.60
2019-04-06T12:40:10.514Z,20.70
2019-04-06T12:42:45.184Z,20.60
2019-04-06T12:45:25.096Z,20.60
2019-04-06T12:48:25.244Z,20.50
2019-04-06T12:51:09.059Z,20.40
2019-04-06T12:54:09.265Z,20.50
2019-04-06T12:56:50.398Z,20.60
2019-04-06T12:59:36.739Z,20.60
2019-04-06T13:02:14.242Z,20.50
2019-04-06T13:05:12.394Z,20.50
2019-04-06T13:08:14.637Z,20.60
2019-04-06T13:11:08.870Z,20.60
2019-04-06T13:13:43.913Z,20.50
2019-04-06T13:16:21.793Z,20.30
2019-04-06T13:19:09.654Z,20.30
2019-04-06T13:21:48.858Z,20.30
2019-04-06T13:24:36.713Z,20.40
2019-04-06T13:27:27.621Z,20.50
2019-04-06T13:30:30.861Z,20.60
2019-04-06T13:33:13.406Z,20.60
2019-04-06T13:35:57.635Z,20.60
2019-04-06T13:38:55.120Z,20.80
2019-04-06T13:41:48.961Z,20.90
2019-04-06T13:44:33.788Z,20.90
2019-04-06T13:47:12.706Z,21.00
2019-04-06T13:50:00.624Z,21.20
2019-04-06T13:52:46.201Z,21.40
2019-04-06T13:55:37.241Z,21.40
2019-04-06T13:58:33.220Z,21.20
2019-04-06T14:01:18.109Z,21.10
2019-04-06T14:03:56.208Z,20.80
2019-04-06T14:06:32.803Z,20.80
2019-04-06T14:09:19.792Z,20.90
2019-04-06T14:12:00.969Z,21.20
2019-04-06T14:14:47.707Z,21.20
2019-04-06T14:17:42.259Z,21.00
2019-04-06T14:20:19.347Z,21.10
2019-04-06T14:23:08.017Z,21.10
2019-04-06T14:25:59.094Z,21.30
2019-04-06T14:28:46.214Z,21.30
2019-04-06T14:31:30.586Z,21.30
2019-04-06T14:34:15.387Z,21.30
2019-04-06T14:36:59.793Z,21.30
2019-04-06T14:39:56.492Z,21.20
2019-04-06T14:42:34.145Z,21.10
2019-04-06T14:45:17.842Z,20.90
2019-04-06T14:47:56.885Z,20.80
2019-04-06T14:50:47.933Z,20.70
2019-04-06T14:53:34.411Z,20.70
2019-04-06T14:56:10.492Z,20.70
2019-04-06T14:58:51.070Z,20.50
2019-04-06T15:01:38.441Z,20.20
2019-04-06T15:04:32.541Z,20.20
2019-04-06T15:07:19.314Z,20.30
2019-04-06T15:10:13.437Z,20.10
2019-04-06T15:13:04.511Z,20.00
2019-04-06T15:15:41.941Z,20.00
2019-04-06T15:18:30.139Z,20.20
2019-04-06T15:21:14.067Z,20.20
2019-04-06T15:24:00.705Z,20.20
2019-04-06T15:26:35.464Z,20.10
2019-04-06T15:29:29.648Z,20.10
2019-04-06T15:32:06.626Z,19.90
2019-04-06T15:34:57.722Z,19.80
2019-04-06T15:37:37.977Z,19.80
2019-04-06T15:40:22.022Z,19.80
2019-04-06T15:43:08.772Z,19.90
2019-04-06T15:45:59.748Z,19.90
2019-04-06T15:48:46.402Z,20.00
2019-04-06T15:51:25.554Z,20.00
2019-04-06T15:54:04.417Z,20.10
2019-04-06T15:56:56.241Z,20.10
2019-04-06T15:59:32.405Z,20.10
2019-04-06T16:02:16.556Z,20.10
2019-04-06T16:04:51.620Z,20.20
2019-04-06T16:07:33.238Z,20.00
2019-04-06T16:10:28.910Z,20.00
2019-04-06T16:13:14.305Z,19.90
2019-04-06T16:15:47.776Z,19.70
2019-04-06T16:18:48.285Z,19.60
2019-04-06T16:21:36.181Z,19.60
2019-04-06T16:24:15.349Z,19.40
2019-04-06T16:26:49.682Z,19.50
2019-04-06T16:29:37.614Z,19.50
2019-04-06T16:32:34.165Z,19.60
2019-04-06T16:35:23.255Z,19.50
2019-04-06T16:38:23.834Z,19.40
2019-04-06T16:41:06.296Z,19.10
2019-04-06T16:43:50.133Z,18.90
2019-04-06T16:46:45.779Z,18.70
2019-04-06T16:49:27.307Z,18.60
2019-04-06T16:52:15.145Z,18.50
2019-04-06T16:54:50.783Z,18.40
2019-04-06T16:57:48.301Z,18.20
2019-04-06T17:00:24.911Z,18.00
2019-04-06T17:03:10.142Z,18.00
2019-04-06T17:05:54.362Z,17.80
2019-04-06T17:08:36.110Z,17.60
2019-04-06T17:11:34.781Z,17.50
2019-04-06T17:14:12.520Z,17.40
2019-04-06T17:17:12.909Z,17.30
2019-04-06T17:19:51.998Z,17.20
2019-04-06T17:22:33.599Z,17.20
2019-04-06T17:25:23.335Z,17.00
2019-04-06T17:28:07.901Z,17.00
2019-04-06T17:30:58.854Z,16.80
2019-04-06T17:33:35.018Z,16.70
2019-04-06T17:36:17.979Z,16.50
2019-04-06T17:39:08.455Z,16.50
2019-04-06T17:41:56.721Z,16.50
2019-04-06T17:44:43.170Z,16.50
2019-04-06T17:47:40.077Z,16.50
2019-04-06T17:50:27.045Z,16.50
2019-04-06T17:53:21.136Z,16.40
2019-04-06T17:56:14.915Z,16.30
2019-04-06T17:59:01.947Z,16.40
2019-04-06T18:01:49.081Z,16.40
2019-04-06T18:04:29.789Z,16.20
2019-04-06T18:07:21.267Z,16.20
2019-04-06T18:10:01.099Z,16.20
2019-04-06T18:12:40.531Z,16.10
2019-04-06T18:15:09.902Z,16.00
2019-04-06T18:17:38.689Z,15.90
2019-04-06T18:20:08.528Z,15.80
2019-04-06T18:22:37.875Z,15.80
2019-04-06T18:25:07.403Z,15.80
2019-04-06T18:27:36.264Z,15.80
2019-04-06T18:30:06.662Z,15.80
2019-04-06T18:32:43.242Z,15.80
2019-04-06T18:35:12.394Z,15.80
2019-04-06T18:37:45.957Z,15.70
2019-04-06T18:40:23.050Z,15.70
2019-04-06T18:42:52.064Z,15.60
2019-04-06T18:45:20.911Z,15.50
2019-04-06T18:47:49.928Z,15.50
2019-04-06T18:50:19.444Z,15.40
2019-04-06T18:52:48.683Z,15.40
2019-04-06T18:55:17.883Z,15.40
2019-04-06T18:57:46.959Z,15.40
2019-04-06T19:00:16.497Z,15.30
2019-04-06T19:02:46.171Z,15.30
2019-04-06T19:05:15.737Z,15.20
2019-04-06T19:07:45.740Z,15.20
2019-04-06T19:10:15.283Z,15.10
2019-04-06T19:12:47.414Z,15.10
2019-04-06T19:15:16.530Z,15.10
2019-04-06T19:17:46.187Z,15.00
2019-04-06T19:20:15.936Z,14.80
2019-04-06T19:22:45.398Z,14.80
2019-04-06T19:25:18.816Z,14.80
2019-04-06T19:27:47.719Z,14.80
2019-04-06T19:30:20.403Z,14.80
2019-04-06T19:32:49.545Z,14.70
2019-04-06T19:35:18.708Z,14.70
2019-04-06T19:37:47.614Z,14.70
2019-04-06T19:40:17.792Z,14.60
2019-04-06T19:42:46.529Z,14.70
2019-04-06T19:45:15.829Z,14.70
2019-04-06T19:47:45.131Z,14.60
2019-04-06T19:50:14.287Z,14.50
2019-04-06T19:52:43.080Z,14.50
2019-04-06T19:55:12.650Z,14.40
2019-04-06T19:57:41.569Z,14.30
2019-04-06T20:00:11.821Z,14.20
2019-04-06T20:02:40.670Z,14.20
2019-04-06T20:05:10.598Z,14.10
2019-04-06T20:07:39.752Z,14.00
2019-04-06T20:10:09.457Z,14.00
2019-04-06T20:12:38.934Z,13.90
2019-04-06T20:15:08.727Z,14.00
2019-04-06T20:17:37.805Z,13.90
2019-04-06T20:20:06.930Z,14.00
2019-04-06T20:22:35.776Z,13.90
2019-04-06T20:25:05.426Z,14.00
2019-04-06T20:27:34.262Z,14.00
2019-04-06T20:30:04.517Z,13.80
2019-04-06T20:32:33.345Z,13.80
2019-04-06T20:35:02.123Z,13.70
2019-04-06T20:37:30.898Z,13.80
2019-04-06T20:39:59.641Z,13.80
2019-04-06T20:42:29.170Z,13.80
2019-04-06T20:44:58.436Z,13.60
2019-04-06T20:47:27.695Z,13.60
2019-04-06T20:49:56.595Z,13.50
2019-04-06T20:52:25.351Z,13.40
2019-04-06T20:54:54.145Z,13.40
2019-04-06T20:57:23.099Z,13.40
2019-04-06T20:59:52.028Z,13.50
